createdAt,value
2023-01-01T00:02:36.945Z,9.60
2023-01-01T00:05:41.025Z,9.60
2023-01-01T00:08:46.182Z,9.60
2023-01-01T00:11:49.895Z,9.70
2023-01-01T00:14:53.169Z,9.70
2023-01-01T00:17:57.829Z,9.80
2023-01-01T00:21:05.200Z,9.80
2023-01-01T00:24:10.122Z,9.80
2023-01-01T00:27:13.607Z,9.70
2023-01-01T00:30:17.215Z,9.70
2023-01-01T00:33:20.745Z,9.70
2023-01-01T00:36:26.203Z,9.60
2023-01-01T00:39:30.893Z,9.60
2023-01-01T00:42:34.282Z,10.90
2023-01-01T00:45:37.764Z,9.60
2023-01-01T00:48:41.254Z,9.60
2023-01-01T00:51:44.645Z,9.70
2023-01-01T00:54:49.463Z,9.60
2023-01-01T00:57:52.947Z,9.60
2023-01-01T01:00:57.384Z,8.50
2023-01-01T01:04:00.803Z,9.50
2023-01-01T01:07:04.251Z,9.50
2023-01-01T01:10:12.184Z,9.40
2023-01-01T01:13:18.923Z,9.60
2023-01-01T01:16:24.693Z,9.50
2023-01-01T01:19:28.221Z,9.60
2023-01-01T01:22:31.426Z,9.70
2023-01-01T01:25:36.082Z,9.60
2023-01-01T01:28:45.382Z,9.60
2023-01-01T01:31:52.286Z,9.80
2023-01-01T01:34:55.603Z,9.90
2023-01-01T01:37:58.805Z,9.80
2023-01-01T01:41:03.787Z,9.90
2023-01-01T01:44:46.559Z,10.00
2023-01-01T01:47:53.377Z,10.00
2023-01-01T01:50:56.845Z,10.00
2023-01-01T01:54:04.319Z,9.90
2023-01-01T01:57:10.892Z,10.00
2023-01-01T02:00:27.047Z,9.80
2023-01-01T02:03:34.523Z,9.80
2023-01-01T02:06:40.763Z,9.80
2023-01-01T02:09:53.113Z,9.80
2023-01-01T02:13:11.143Z,9.80
2023-01-01T02:16:34.771Z,12.30
2023-01-01T02:20:18.832Z,9.70
2023-01-01T02:24:04.213Z,9.80
2023-01-01T02:27:17.100Z,9.70
2023-01-01T02:30:49.795Z,9.80
2023-01-01T02:34:02.759Z,9.80
2023-01-01T02:37:17.076Z,10.00
2023-01-01T02:40:31.500Z,10.00
2023-01-01T02:43:49.202Z,10.40
2023-01-01T02:50:39.312Z,10.20
2023-01-01T02:53:50.280Z,10.20
2023-01-01T02:57:18.378Z,10.40
2023-01-01T03:01:05.449Z,10.40
2023-01-01T03:04:27.087Z,10.30
2023-01-01T03:08:03.403Z,10.30
2023-01-01T03:11:30.445Z,10.30
2023-01-01T03:18:20.763Z,10.10
2023-01-01T03:21:31.900Z,10.00
2023-01-01T03:24:54.261Z,9.90
2023-01-01T03:28:03.632Z,9.90
2023-01-01T03:31:17.412Z,9.90
2023-01-01T03:37:56.341Z,9.90
2023-01-01T03:41:06.246Z,9.80
2023-01-01T03:44:25.278Z,9.70
2023-01-01T03:47:39.481Z,8.80
2023-01-01T03:51:22.263Z,10.00
2023-01-01T03:54:58.525Z,9.80
2023-01-01T03:58:15.560Z,9.80
2023-01-01T04:01:31.232Z,9.90
2023-01-01T04:04:37.051Z,9.90
2023-01-01T04:10:53.405Z,9.90
2023-01-01T04:14:03.852Z,9.80
2023-01-01T04:17:09.314Z,9.90
2023-01-01T04:20:22.972Z,9.90
2023-01-01T04:23:33.394Z,9.90
2023-01-01T04:26:38.687Z,9.90
2023-01-01T04:29:56.553Z,9.80
2023-01-01T04:33:06.239Z,9.90
2023-01-01T04:36:11.469Z,9.80
2023-01-01T04:39:19.863Z,9.80
2023-01-01T04:42:24.651Z,9.80
2023-01-01T04:45:29.368Z,9.80
2023-01-01T04:48:33.435Z,9.70
2023-01-01T04:52:01.576Z,9.60
2023-01-01T04:55:04.829Z,9.60
2023-01-01T04:58:09.491Z,9.60
2023-01-01T05:01:18.301Z,9.60
2023-01-01T05:04:36.562Z,9.50
2023-01-01T05:07:48.966Z,9.50
2023-01-01T05:11:25.302Z,9.40
2023-01-01T05:14:31.415Z,9.40
2023-01-01T05:17:40.847Z,9.40
2023-01-01T05:21:00.137Z,9.40
2023-01-01T05:24:05.738Z,9.40
2023-01-01T05:27:18.388Z,9.30
2023-01-01T05:30:28.543Z,9.30
2023-01-01T05:33:34.174Z,9.30
2023-01-01T05:36:47.452Z,9.20
2023-01-01T05:39:52.582Z,9.20
2023-01-01T05:43:06.029Z,9.20
2023-01-01T05:46:20.818Z,9.20
2023-01-01T05:49:24.668Z,9.10
2023-01-01T05:52:30.700Z,9.00
2023-01-01T05:55:38.153Z,8.90
2023-01-01T05:58:53.610Z,8.90
2023-01-01T06:02:07.913Z,8.80
2023-01-01T06:05:12.945Z,8.80
2023-01-01T06:08:24.769Z,8.70
2023-01-01T06:11:43.587Z,8.70
2023-01-01T06:14:49.493Z,8.70
2023-01-01T06:18:03.095Z,8.60
2023-01-01T06:21:13.969Z,8.60
2023-01-01T06:24:23.409Z,8.60
2023-01-01T06:27:42.715Z,8.60
2023-01-01T06:31:23.856Z,8.60
2023-01-01T06:34:34.791Z,8.50
2023-01-01T06:37:52.499Z,8.60
2023-01-01T06:41:08.377Z,8.60
2023-01-01T06:44:14.077Z,8.60
2023-01-01T06:47:44.013Z,8.60
2023-01-01T06:50:53.010Z,8.70
2023-01-01T06:54:08.852Z,8.70
2023-01-01T06:57:25.670Z,8.70
2023-01-01T07:00:42.702Z,8.70
2023-01-01T07:04:10.548Z,8.70
2023-01-01T07:11:17.747Z,8.70
2023-01-01T07:18:04.341Z,8.70
2023-01-01T07:21:50.383Z,8.80
2023-01-01T07:25:06.294Z,8.80
2023-01-01T07:28:11.166Z,8.80
2023-01-01T07:31:20.181Z,8.90
2023-01-01T07:34:29.100Z,8.90
2023-01-01T07:37:44.188Z,8.90
2023-01-01T07:40:53.250Z,8.90
2023-01-01T07:43:59.635Z,9.00
2023-01-01T07:47:21.481Z,9.00
2023-01-01T07:53:53.657Z,9.10
2023-01-01T07:57:10.008Z,9.20
2023-01-01T08:00:17.777Z,9.20
2023-01-01T08:03:33.850Z,9.10
2023-01-01T08:06:42.691Z,9.10
2023-01-01T08:09:52.948Z,9.20
2023-01-01T08:13:12.639Z,9.20
2023-01-01T08:16:22.068Z,9.20
2023-01-01T08:19:34.932Z,9.20
2023-01-01T08:23:12.907Z,9.20
2023-01-01T08:26:32.339Z,9.30
2023-01-01T08:29:42.307Z,9.50
2023-01-01T08:32:54.367Z,9.60
2023-01-01T08:36:03.391Z,9.70
2023-01-01T08:39:12.498Z,9.70
2023-01-01T08:42:25.863Z,9.80
2023-01-01T08:45:41.272Z,9.90
2023-01-01T08:48:51.443Z,10.00
2023-01-01T08:52:03.060Z,10.10
2023-01-01T08:55:09.940Z,10.20
2023-01-01T08:58:13.230Z,10.40
2023-01-01T09:01:29.577Z,10.50
2023-01-01T09:04:33.660Z,10.50
2023-01-01T09:07:37.661Z,10.60
2023-01-01T09:10:48.069Z,10.70
2023-01-01T09:13:53.735Z,10.70
2023-01-01T09:17:01.859Z,10.80
2023-01-01T09:20:13.243Z,10.80
2023-01-01T09:23:18.929Z,10.80
2023-01-01T09:26:28.900Z,10.80
2023-01-01T09:29:32.572Z,10.90
2023-01-01T09:32:39.693Z,11.00
2023-01-01T09:35:44.664Z,11.00
2023-01-01T09:38:50.209Z,11.10
2023-01-01T09:42:11.124Z,11.20
2023-01-01T09:45:22.559Z,11.20
2023-01-01T09:48:29.538Z,11.30
2023-01-01T09:51:47.795Z,11.30
2023-01-01T09:54:59.015Z,11.40
2023-01-01T09:58:02.358Z,11.40
2023-01-01T10:01:14.029Z,11.50
2023-01-01T10:04:45.613Z,11.50
2023-01-01T10:07:52.332Z,11.50
2023-01-01T10:11:05.481Z,11.60
2023-01-01T10:14:18.403Z,11.70
2023-01-01T10:17:33.956Z,11.80
2023-01-01T10:20:43.405Z,12.00
2023-01-01T10:23:51.067Z,12.10
2023-01-01T10:26:57.231Z,12.20
2023-01-01T10:30:04.942Z,12.30
2023-01-01T10:33:14.110Z,12.40
2023-01-01T10:36:20.983Z,12.50
2023-01-01T10:39:25.255Z,12.60
2023-01-01T10:42:28.920Z,12.80
2023-01-01T10:45:35.312Z,13.10
2023-01-01T10:48:38.823Z,13.20
2023-01-01T10:51:47.197Z,13.40
2023-01-01T10:54:52.072Z,13.60
2023-01-01T10:57:55.448Z,13.50
2023-01-01T11:01:06.068Z,13.70
2023-01-01T11:04:22.256Z,13.80
2023-01-01T11:07:33.315Z,13.90
2023-01-01T11:10:37.530Z,13.90
2023-01-01T11:13:42.205Z,13.90
2023-01-01T11:16:47.626Z,13.90
2023-01-01T11:19:56.690Z,13.80
2023-01-01T11:23:20.651Z,13.60
2023-01-01T11:26:28.047Z,13.70
2023-01-01T11:29:31.679Z,13.80
2023-01-01T11:32:37.183Z,14.10
2023-01-01T11:35:50.807Z,14.30
2023-01-01T11:39:07.700Z,14.40
2023-01-01T11:42:19.418Z,14.30
2023-01-01T11:45:25.443Z,14.20
2023-01-01T11:48:32.055Z,14.10
2023-01-01T11:51:36.400Z,13.90
2023-01-01T11:54:41.324Z,13.60
2023-01-01T11:57:55.443Z,13.40
2023-01-01T12:01:02.658Z,13.30
2023-01-01T12:04:10.928Z,13.30
2023-01-01T12:07:18.910Z,13.40
2023-01-01T12:10:28.360Z,13.40
2023-01-01T12:13:38.682Z,13.30
2023-01-01T12:16:51.639Z,13.20
2023-01-01T12:20:03.176Z,13.10
2023-01-01T12:23:06.936Z,13.10
2023-01-01T12:26:19.214Z,13.00
2023-01-01T12:29:46.414Z,13.10
2023-01-01T12:33:22.805Z,13.20
2023-01-01T12:36:37.900Z,13.30
2023-01-01T12:40:27.478Z,13.30
2023-01-01T12:43:44.690Z,13.10
2023-01-01T12:46:55.762Z,13.00
2023-01-01T12:50:10.610Z,12.90
2023-01-01T12:53:26.657Z,12.90
2023-01-01T12:56:37.043Z,12.80
2023-01-01T12:59:45.797Z,12.80
2023-01-01T13:02:52.342Z,12.80
2023-01-01T13:05:58.063Z,12.80
2023-01-01T13:09:08.379Z,12.80
2023-01-01T13:12:17.501Z,12.70
2023-01-01T13:15:48.967Z,12.70
2023-01-01T13:18:58.925Z,12.60
2023-01-01T13:22:38.974Z,12.50
2023-01-01T13:25:42.890Z,12.50
2023-01-01T13:29:45.209Z,12.40
2023-01-01T13:33:23.253Z,12.30
2023-01-01T13:36:32.722Z,12.40
2023-01-01T13:39:55.660Z,12.30
2023-01-01T13:43:19.430Z,12.30
2023-01-01T13:46:29.842Z,12.30
2023-01-01T13:49:46.543Z,12.30
2023-01-01T13:53:07.188Z,11.50
2023-01-01T13:56:33.759Z,12.20
2023-01-01T13:59:56.114Z,12.10
2023-01-01T14:03:01.441Z,12.10
2023-01-01T14:06:12.838Z,12.10
2023-01-01T14:09:17.882Z,12.00
2023-01-01T14:12:23.121Z,11.90
2023-01-01T14:15:29.912Z,11.80
2023-01-01T14:18:37.525Z,11.60
2023-01-01T14:21:43.043Z,11.40
2023-01-01T14:24:48.945Z,11.30
2023-01-01T14:27:53.390Z,11.20
2023-01-01T14:30:58.818Z,11.30
2023-01-01T14:34:05.209Z,11.20
2023-01-01T14:37:24.234Z,11.20
2023-01-01T14:40:29.272Z,11.10
2023-01-01T14:43:32.752Z,11.10
2023-01-01T14:46:42.177Z,11.10
2023-01-01T14:49:45.737Z,11.00
2023-01-01T14:52:56.211Z,10.80
2023-01-01T14:56:00.321Z,10.80
2023-01-01T14:59:09.649Z,10.70
2023-01-01T15:02:16.634Z,10.60
2023-01-01T15:05:35.167Z,10.50
2023-01-01T15:08:40.887Z,10.50
2023-01-01T15:11:44.841Z,10.50
2023-01-01T15:14:49.462Z,10.40
2023-01-01T15:17:52.811Z,10.30
2023-01-01T15:20:57.337Z,10.30
2023-01-01T15:24:04.743Z,10.20
2023-01-01T15:27:18.709Z,10.30
2023-01-01T15:30:28.868Z,10.30
2023-01-01T15:33:32.647Z,10.30
2023-01-01T15:36:36.217Z,10.30
2023-01-01T15:39:52.689Z,10.30
2023-01-01T15:43:21.330Z,10.20
2023-01-01T15:46:32.592Z,10.20
2023-01-01T15:49:36.201Z,10.20
2023-01-01T15:52:40.612Z,10.10
2023-01-01T15:55:53.066Z,10.00
2023-01-01T15:59:07.113Z,10.00
2023-01-01T16:02:17.081Z,10.00
2023-01-01T16:05:25.112Z,10.00
2023-01-01T16:08:31.914Z,9.90
2023-01-01T16:11:36.579Z,9.90
2023-01-01T16:14:40.233Z,9.90
2023-01-01T16:17:44.512Z,9.90
2023-01-01T16:20:48.833Z,9.90
2023-01-01T16:23:53.361Z,9.80
2023-01-01T16:26:58.464Z,9.70
2023-01-01T16:30:02.637Z,9.70
2023-01-01T16:33:07.467Z,9.60
2023-01-01T16:36:13.228Z,9.60
2023-01-01T16:39:16.753Z,9.60
2023-01-01T16:42:21.728Z,9.50
2023-01-01T16:45:25.114Z,9.40
2023-01-01T16:48:28.445Z,9.30
2023-01-01T16:51:33.822Z,9.40
2023-01-01T16:54:37.312Z,9.40
2023-01-01T17:00:48.017Z,9.30
2023-01-01T17:03:51.630Z,9.10
2023-01-01T17:06:55.926Z,9.20
2023-01-01T17:09:59.273Z,9.20
2023-01-01T17:13:08.562Z,9.20
2023-01-01T17:16:15.564Z,9.10
2023-01-01T17:19:21.721Z,9.10
2023-01-01T17:22:29.221Z,9.10
2023-01-01T17:25:37.434Z,9.20
2023-01-01T17:28:43.319Z,9.00
2023-01-01T17:31:46.893Z,9.00
2023-01-01T17:34:50.163Z,9.00
2023-01-01T17:37:53.558Z,9.00
2023-01-01T17:41:03.695Z,9.00
2023-01-01T17:44:09.835Z,9.00
2023-01-01T17:47:13.499Z,8.90
2023-01-01T17:50:20.221Z,9.00
2023-01-01T17:53:23.902Z,9.00
2023-01-01T17:56:27.354Z,8.90
2023-01-01T17:59:32.846Z,8.80
2023-01-01T18:02:40.024Z,8.90
2023-01-01T18:05:44.410Z,8.80
2023-01-01T18:08:48.416Z,8.70
2023-01-01T18:11:52.241Z,8.70
2023-01-01T18:14:57.644Z,8.70
2023-01-01T18:18:04.137Z,8.80
2023-01-01T18:21:09.048Z,8.80
2023-01-01T18:24:15.012Z,8.70
2023-01-01T18:27:18.782Z,8.80
2023-01-01T18:30:26.643Z,8.70
2023-01-01T18:33:30.469Z,8.70
2023-01-01T18:36:35.450Z,8.70
2023-01-01T18:39:41.968Z,8.60
2023-01-01T18:42:50.736Z,8.50
2023-01-01T18:45:58.115Z,8.50
2023-01-01T18:49:09.628Z,8.40
2023-01-01T18:52:20.178Z,8.00
2023-01-01T18:55:28.474Z,8.20
2023-01-01T18:58:32.897Z,8.20
2023-01-01T19:01:37.983Z,8.20
2023-01-01T19:04:41.764Z,8.10
2023-01-01T19:07:51.343Z,8.10
2023-01-01T19:10:56.659Z,8.10
2023-01-01T19:14:09.782Z,8.00
2023-01-01T19:17:22.051Z,7.90
2023-01-01T19:20:26.179Z,8.00
2023-01-01T19:23:33.448Z,8.00
2023-01-01T19:26:41.308Z,8.10
2023-01-01T19:29:48.272Z,8.00
2023-01-01T19:32:53.443Z,8.00
2023-01-01T19:35:57.139Z,8.10
2023-01-01T19:39:00.820Z,8.00
2023-01-01T19:42:07.355Z,7.90
2023-01-01T19:45:12.102Z,8.30
2023-01-01T19:51:24.119Z,7.80
2023-01-01T19:54:27.681Z,7.80
2023-01-01T19:57:31.288Z,7.80
2023-01-01T20:00:38.232Z,7.70
2023-01-01T20:03:54.135Z,7.60
2023-01-01T20:06:58.723Z,7.60
2023-01-01T20:10:02.448Z,7.60
2023-01-01T20:13:06.824Z,7.50
2023-01-01T20:16:10.797Z,7.40
2023-01-01T20:19:15.594Z,7.50
2023-01-01T20:22:21.393Z,7.50
2023-01-01T20:25:25.367Z,7.40
2023-01-01T20:28:46.452Z,7.50
2023-01-01T20:31:52.551Z,7.30
2023-01-01T20:34:57.568Z,7.30
2023-01-01T20:37:59.901Z,7.40
2023-01-01T20:41:23.869Z,7.30
2023-01-01T20:44:27.770Z,7.20
2023-01-01T20:47:31.341Z,7.30
2023-01-01T20:50:36.328Z,7.30
2023-01-01T20:53:39.957Z,7.30
2023-01-01T20:56:43.691Z,7.30
2023-01-01T20:59:49.347Z,7.40
2023-01-01T21:02:53.473Z,7.30
2023-01-01T21:05:58.338Z,7.30
2023-01-01T21:09:02.070Z,7.40
2023-01-01T21:12:07.005Z,7.40
2023-01-01T21:15:16.408Z,7.30
2023-01-01T21:18:19.978Z,7.40
2023-01-01T21:21:26.601Z,7.30
2023-01-01T21:24:33.949Z,7.30
2023-01-01T21:27:38.691Z,7.40
2023-01-01T21:30:51.581Z,7.40
2023-01-01T21:33:54.939Z,7.40
2023-01-01T21:37:03.266Z,7.30
2023-01-01T21:40:32.656Z,7.30
2023-01-01T21:43:41.057Z,7.30
2023-01-01T21:46:54.234Z,7.20
2023-01-01T21:50:00.306Z,7.20
2023-01-01T21:53:13.173Z,7.20
2023-01-01T21:56:28.912Z,7.30
2023-01-01T21:59:38.658Z,7.30
2023-01-01T22:02:48.155Z,7.30
2023-01-01T22:05:57.363Z,7.20
2023-01-01T22:09:14.876Z,7.30
2023-01-01T22:12:24.675Z,7.30
2023-01-01T22:15:38.412Z,7.20
2023-01-01T22:18:42.731Z,7.10
2023-01-01T22:21:46.716Z,7.10
2023-01-01T22:24:55.517Z,7.10
2023-01-01T22:28:00.088Z,7.00
2023-01-01T22:31:03.860Z,6.90
2023-01-01T22:34:17.927Z,6.80
2023-01-01T22:37:25.837Z,6.80
2023-01-01T22:40:32.876Z,6.80
2023-01-01T22:43:39.684Z,6.80
2023-01-01T22:46:44.207Z,6.80
2023-01-01T22:49:51.512Z,6.80
2023-01-01T22:52:55.070Z,6.70
2023-01-01T22:55:59.678Z,6.60
2023-01-01T22:59:02.909Z,6.60
2023-01-01T23:02:06.698Z,6.70
2023-01-01T23:05:10.401Z,6.80
2023-01-01T23:08:14.273Z,6.80
2023-01-01T23:11:19.742Z,6.80
2023-01-01T23:14:41.690Z,6.80
2023-01-01T23:17:44.879Z,6.90
2023-01-01T23:20:48.235Z,6.90
2023-01-01T23:23:54.717Z,6.90
2023-01-01T23:27:00.218Z,7.00
2023-01-01T23:30:04.154Z,6.90
2023-01-01T23:33:07.735Z,7.00
2023-01-01T23:36:12.375Z,7.10
2023-01-01T23:39:15.611Z,7.10
2023-01-01T23:42:20.481Z,7.00
2023-01-01T23:45:24.444Z,7.00
2023-01-01T23:48:28.497Z,7.00
2023-01-01T23:51:31.876Z,7.10
2023-01-01T23:54:35.215Z,7.10
2023-01-01T23:57:40.041Z,7.10
